Airfield :
LOGIN :

Register | Disclaimer

   EN    FR    IT 

 










Legend :    VFR   Marginal VFR   IFR   Intensive IFR   Very Intensive IFR
Visi :
Ceiling :
>= 8 km
>= 3000ft
5 to 8 km
1000 to 3000 ft
1500m to 5 km
500 to 1000 ft
800 to 1500m
200 to 500 ft
< 800m
< 200 ft
Symbols :   Thunderstorms  Fog  Heavy snow  Heavy precipitations  Wind > 20 kt
SIGMETs :     Misc.  Thunderstorms  Icing  Turbulence  Mountain Waves  Volcanic Ashes






- Airport Elevation : 49 ft
- IATA code : GLZ


EHGR - Gilze-Rijen Airbase

CURRENT METAR :
  • 310455Z AUTO 18006KT 140V210 9999 OVC022 12/12 Q1021 WHT

EXPIRED METARs :
  • 310426Z AUTO 19007KT 140V230 9999 FEW006 BKN007 OVC008 13/12 Q1021 GRN
  • 310425Z AUTO 19008KT 150V230 9999 BKN006 BKN007 13/12 Q1021 YLO
  • 310355Z AUTO 19007KT 150V230 9999 FEW007 SCT010 OVC024 13/12 Q1021 GRN
  • 310346Z AUTO 19007KT 140V220 9999 FEW007 OVC024 13/12 Q1021 WHT
  • 310325Z AUTO 19008KT 150V250 9999 SCT007 BKN008 13/12 Q1021 GRN
  • 310313Z AUTO 19008KT 160V230 9999 FEW007 SCT009 13/12 Q1021 GRN
  • 310302Z AUTO 19007KT 150V230 9999 FEW006 BKN028 13/12 Q1021 BLU
  • 310255Z AUTO 20007KT 150V230 9999 BKN007 BKN008 OVC011 13/12 Q1021 GRN
  • 310247Z AUTO 20007KT 160V240 9999 SCT006 SCT008 OVC026 13/13 Q1021 YLO
  • 310243Z AUTO 19007KT 160V240 9999 FEW006 OVC025 13/13 Q1021 BLU
  • 310225Z AUTO 19006KT 160V230 9999 FEW007 OVC021 13/13 Q1022 WHT
  • 310207Z AUTO 20005KT 170V250 9999 FEW008 SCT010 OVC018 14/13 Q1022 GRN

Expired Forecast.



MET'MAP, your aeronautical weather chart ! - Copyright ORBIFLY December 2007 - Disclaimer

ORBIFLY MET'MAP TEAM :

Programming & Development : Alexandra Zaïnal
Concept & original design : Baudouin d'Aumeries
Assistance for programming : Marc-Olivier Méhu
Technical & hardware support : Manuel Goepfert

Contact : metmap@orbifly.com




SOURCES & CREDITS :

   NOAA